sensor_id;sensor_type;location;lat;lon;timestamp;pressure;altitude;pressure_sealevel;temperature
71807;BMP280;59655;42.590;23.364;2023-09-08T00:00:46;92085.06;;;18.86
71807;BMP280;59655;42.590;23.364;2023-09-08T00:03:12;92089.38;;;18.79
71807;BMP280;59655;42.590;23.364;2023-09-08T00:05:37;92090.19;;;18.82
71807;BMP280;59655;42.590;23.364;2023-09-08T00:08:03;92094.03;;;18.79
71807;BMP280;59655;42.590;23.364;2023-09-08T00:10:29;92088.53;;;18.77
71807;BMP280;59655;42.590;23.364;2023-09-08T00:12:54;92089.13;;;18.75
71807;BMP280;59655;42.590;23.364;2023-09-08T00:15:19;92083.16;;;18.77
71807;BMP280;59655;42.590;23.364;2023-09-08T00:17:45;92082.91;;;18.73
71807;BMP280;59655;42.590;23.364;2023-09-08T00:20:12;92083.09;;;18.65
71807;BMP280;59655;42.590;23.364;2023-09-08T00:22:38;92082.94;;;18.63
71807;BMP280;59655;42.590;23.364;2023-09-08T00:25:04;92077.13;;;18.67
71807;BMP280;59655;42.590;23.364;2023-09-08T00:27:30;92086.03;;;18.69
71807;BMP280;59655;42.590;23.364;2023-09-08T00:29:56;92077.81;;;18.67
71807;BMP280;59655;42.590;23.364;2023-09-08T00:32:21;92081.25;;;18.68
71807;BMP280;59655;42.590;23.364;2023-09-08T00:34:47;92079.69;;;18.64
71807;BMP280;59655;42.590;23.364;2023-09-08T00:37:12;92075.78;;;18.56
71807;BMP280;59655;42.590;23.364;2023-09-08T00:39:38;92078.75;;;18.60
71807;BMP280;59655;42.590;23.364;2023-09-08T00:42:04;92073.69;;;18.54
71807;BMP280;59655;42.590;23.364;2023-09-08T00:44:29;92076.63;;;18.58
71807;BMP280;59655;42.590;23.364;2023-09-08T00:46:55;92066.13;;;18.62
71807;BMP280;59655;42.590;23.364;2023-09-08T00:49:21;92067.28;;;18.59
71807;BMP280;59655;42.590;23.364;2023-09-08T00:51:57;92064.63;;;18.50
71807;BMP280;59655;42.590;23.364;2023-09-08T00:54:42;92061.25;;;18.49
71807;BMP280;59655;42.590;23.364;2023-09-08T00:57:09;92057.84;;;18.49
71807;BMP280;59655;42.590;23.364;2023-09-08T00:59:35;92063.50;;;18.53
71807;BMP280;59655;42.590;23.364;2023-09-08T01:02:02;92059.97;;;18.50
71807;BMP280;59655;42.590;23.364;2023-09-08T01:04:28;92055.44;;;18.53
71807;BMP280;59655;42.590;23.364;2023-09-08T01:06:54;92057.03;;;18.46
71807;BMP280;59655;42.590;23.364;2023-09-08T01:09:20;92059.00;;;18.46
71807;BMP280;59655;42.590;23.364;2023-09-08T01:11:46;92051.50;;;18.44
71807;BMP280;59655;42.590;23.364;2023-09-08T01:14:12;92060.28;;;18.45
71807;BMP280;59655;42.590;23.364;2023-09-08T01:16:39;92048.69;;;18.42
71807;BMP280;59655;42.590;23.364;2023-09-08T01:19:08;92061.56;;;18.44
71807;BMP280;59655;42.590;23.364;2023-09-08T01:26:53;92057.75;;;18.47
71807;BMP280;59655;42.590;23.364;2023-09-08T01:29:19;92048.50;;;18.50
71807;BMP280;59655;42.590;23.364;2023-09-08T01:31:45;92049.06;;;18.48
71807;BMP280;59655;42.590;23.364;2023-09-08T01:34:11;92045.13;;;18.49
71807;BMP280;59655;42.590;23.364;2023-09-08T01:36:37;92050.09;;;18.43
71807;BMP280;59655;42.590;23.364;2023-09-08T01:39:03;92048.25;;;18.46
71807;BMP280;59655;42.590;23.364;2023-09-08T01:41:29;92043.00;;;18.48
71807;BMP280;59655;42.590;23.364;2023-09-08T01:43:56;92038.94;;;18.47
71807;BMP280;59655;42.590;23.364;2023-09-08T01:46:23;92041.19;;;18.40
71807;BMP280;59655;42.590;23.364;2023-09-08T01:48:48;92044.03;;;18.42
71807;BMP280;59655;42.590;23.364;2023-09-08T01:51:13;92042.19;;;18.45
71807;BMP280;59655;42.590;23.364;2023-09-08T01:53:39;92041.47;;;18.45
71807;BMP280;59655;42.590;23.364;2023-09-08T01:56:04;92042.88;;;18.46
71807;BMP280;59655;42.590;23.364;2023-09-08T01:58:45;92033.97;;;18.43
71807;BMP280;59655;42.590;23.364;2023-09-08T02:01:20;92033.13;;;18.40
71807;BMP280;59655;42.590;23.364;2023-09-08T02:03:45;92032.59;;;18.42
71807;BMP280;59655;42.590;23.364;2023-09-08T02:06:11;92034.31;;;18.37
71807;BMP280;59655;42.590;23.364;2023-09-08T02:08:36;92031.75;;;18.39
71807;BMP280;59655;42.590;23.364;2023-09-08T02:11:02;92034.69;;;18.44
71807;BMP280;59655;42.590;23.364;2023-09-08T02:13:27;92028.59;;;18.43
71807;BMP280;59655;42.590;23.364;2023-09-08T02:15:52;92037.13;;;18.39
71807;BMP280;59655;42.590;23.364;2023-09-08T02:18:18;92022.97;;;18.39
71807;BMP280;59655;42.590;23.364;2023-09-08T02:20:43;92023.69;;;18.39
71807;BMP280;59655;42.590;23.364;2023-09-08T02:23:09;92020.69;;;18.45
71807;BMP280;59655;42.590;23.364;2023-09-08T02:25:34;92020.53;;;18.43
71807;BMP280;59655;42.590;23.364;2023-09-08T02:27:59;92012.63;;;18.45
71807;BMP280;59655;42.590;23.364;2023-09-08T02:30:25;92026.38;;;18.39
71807;BMP280;59655;42.590;23.364;2023-09-08T02:32:50;92012.69;;;18.35
71807;BMP280;59655;42.590;23.364;2023-09-08T02:35:16;92004.16;;;18.39
71807;BMP280;59655;42.590;23.364;2023-09-08T02:37:41;92012.38;;;18.41
71807;BMP280;59655;42.590;23.364;2023-09-08T02:40:07;92011.06;;;18.42
71807;BMP280;59655;42.590;23.364;2023-09-08T02:42:32;92008.69;;;18.36
71807;BMP280;59655;42.590;23.364;2023-09-08T02:44:58;91997.25;;;18.36
71807;BMP280;59655;42.590;23.364;2023-09-08T02:47:23;92008.25;;;18.40
71807;BMP280;59655;42.590;23.364;2023-09-08T02:49:49;92009.28;;;18.35
71807;BMP280;59655;42.590;23.364;2023-09-08T02:52:14;91999.16;;;18.24
71807;BMP280;59655;42.590;23.364;2023-09-08T02:54:40;92000.94;;;18.31
71807;BMP280;59655;42.590;23.364;2023-09-08T02:57:05;91993.63;;;18.31
71807;BMP280;59655;42.590;23.364;2023-09-08T02:59:31;91992.38;;;18.23
71807;BMP280;59655;42.590;23.364;2023-09-08T03:01:56;91994.47;;;18.24
71807;BMP280;59655;42.590;23.364;2023-09-08T03:04:21;91988.03;;;18.17
71807;BMP280;59655;42.590;23.364;2023-09-08T03:06:47;91987.56;;;18.21
71807;BMP280;59655;42.590;23.364;2023-09-08T03:09:12;91994.13;;;18.18
71807;BMP280;59655;42.590;23.364;2023-09-08T03:11:38;91995.69;;;18.11
71807;BMP280;59655;42.590;23.364;2023-09-08T03:14:03;91991.91;;;18.05
71807;BMP280;59655;42.590;23.364;2023-09-08T03:16:28;91986.53;;;18.05
71807;BMP280;59655;42.590;23.364;2023-09-08T03:18:54;91990.81;;;17.98
71807;BMP280;59655;42.590;23.364;2023-09-08T03:21:19;91992.78;;;17.98
71807;BMP280;59655;42.590;23.364;2023-09-08T03:23:45;91992.91;;;18.00
71807;BMP280;59655;42.590;23.364;2023-09-08T03:26:11;91994.22;;;17.99
71807;BMP280;59655;42.590;23.364;2023-09-08T03:28:37;91982.91;;;17.90
71807;BMP280;59655;42.590;23.364;2023-09-08T03:31:04;91985.06;;;17.82
71807;BMP280;59655;42.590;23.364;2023-09-08T03:33:29;91985.06;;;17.82
71807;BMP280;59655;42.590;23.364;2023-09-08T03:35:55;91999.50;;;17.77
71807;BMP280;59655;42.590;23.364;2023-09-08T03:38:21;91996.66;;;17.75
71807;BMP280;59655;42.590;23.364;2023-09-08T03:40:46;92003.66;;;17.68
71807;BMP280;59655;42.590;23.364;2023-09-08T03:43:12;92001.09;;;17.70
71807;BMP280;59655;42.590;23.364;2023-09-08T03:45:37;92002.06;;;17.65
71807;BMP280;59655;42.590;23.364;2023-09-08T03:48:03;92003.94;;;17.63
71807;BMP280;59655;42.590;23.364;2023-09-08T03:50:29;92004.22;;;17.57
71807;BMP280;59655;42.590;23.364;2023-09-08T03:52:55;92005.22;;;17.62
71807;BMP280;59655;42.590;23.364;2023-09-08T03:55:20;91997.44;;;17.66
71807;BMP280;59655;42.590;23.364;2023-09-08T03:57:46;92006.44;;;17.70
71807;BMP280;59655;42.590;23.364;2023-09-08T04:00:12;92007.03;;;17.69
71807;BMP280;59655;42.590;23.364;2023-09-08T04:02:57;92009.56;;;17.67
71807;BMP280;59655;42.590;23.364;2023-09-08T04:05:23;92004.09;;;17.55
71807;BMP280;59655;42.590;23.364;2023-09-08T04:07:48;92010.31;;;17.58
71807;BMP280;59655;42.590;23.364;2023-09-08T04:10:14;92000.41;;;17.60
71807;BMP280;59655;42.590;23.364;2023-09-08T04:12:40;92004.78;;;17.56
71807;BMP280;59655;42.590;23.364;2023-09-08T04:15:05;92004.25;;;17.47
71807;BMP280;59655;42.590;23.364;2023-09-08T04:17:31;92005.84;;;17.41
71807;BMP280;59655;42.590;23.364;2023-09-08T04:19:57;92005.69;;;17.48
71807;BMP280;59655;42.590;23.364;2023-09-08T04:22:22;92012.31;;;17.47
71807;BMP280;59655;42.590;23.364;2023-09-08T04:24:47;92010.91;;;17.46
71807;BMP280;59655;42.590;23.364;2023-09-08T04:27:13;92012.22;;;17.26
71807;BMP280;59655;42.590;23.364;2023-09-08T04:29:38;92010.38;;;17.19
71807;BMP280;59655;42.590;23.364;2023-09-08T04:32:04;92016.31;;;17.17
71807;BMP280;59655;42.590;23.364;2023-09-08T04:34:41;92015.84;;;17.31
71807;BMP280;59655;42.590;23.364;2023-09-08T04:37:06;92016.31;;;17.17
71807;BMP280;59655;42.590;23.364;2023-09-08T04:39:33;92020.97;;;17.07
71807;BMP280;59655;42.590;23.364;2023-09-08T04:41:59;92020.44;;;17.09
71807;BMP280;59655;42.590;23.364;2023-09-08T04:44:24;92021.13;;;17.19
71807;BMP280;59655;42.590;23.364;2023-09-08T04:46:51;92017.84;;;17.30
71807;BMP280;59655;42.590;23.364;2023-09-08T04:49:16;92020.13;;;17.34
71807;BMP280;59655;42.590;23.364;2023-09-08T04:51:41;92017.72;;;17.28
71807;BMP280;59655;42.590;23.364;2023-09-08T04:54:07;92015.16;;;17.30
71807;BMP280;59655;42.590;23.364;2023-09-08T04:56:33;92017.44;;;17.34
71807;BMP280;59655;42.590;23.364;2023-09-08T04:58:58;92022.38;;;17.37
71807;BMP280;59655;42.590;23.364;2023-09-08T05:01:26;92022.91;;;17.36
71807;BMP280;59655;42.590;23.364;2023-09-08T05:03:51;92018.00;;;17.32
71807;BMP280;59655;42.590;23.364;2023-09-08T05:06:17;92023.50;;;17.34
71807;BMP280;59655;42.590;23.364;2023-09-08T05:08:42;92029.00;;;17.36
71807;BMP280;59655;42.590;23.364;2023-09-08T05:11:09;92027.03;;;17.37
71807;BMP280;59655;42.590;23.364;2023-09-08T05:13:34;92022.50;;;17.39
71807;BMP280;59655;42.590;23.364;2023-09-08T05:16:00;92027.19;;;17.39
71807;BMP280;59655;42.590;23.364;2023-09-08T05:18:36;92033.25;;;17.39
71807;BMP280;59655;42.590;23.364;2023-09-08T05:21:01;92033.50;;;17.43
71807;BMP280;59655;42.590;23.364;2023-09-08T05:23:27;92027.00;;;17.46
71807;BMP280;59655;42.590;23.364;2023-09-08T05:25:52;92032.53;;;17.48
71807;BMP280;59655;42.590;23.364;2023-09-08T05:28:17;92035.75;;;17.47
71807;BMP280;59655;42.590;23.364;2023-09-08T05:30:46;92031.38;;;17.52
71807;BMP280;59655;42.590;23.364;2023-09-08T05:33:16;92031.38;;;17.52
71807;BMP280;59655;42.590;23.364;2023-09-08T05:35:42;92033.34;;;17.51
71807;BMP280;59655;42.590;23.364;2023-09-08T05:38:07;92035.47;;;17.53
71807;BMP280;59655;42.590;23.364;2023-09-08T05:40:32;92036.19;;;17.53
71807;BMP280;59655;42.590;23.364;2023-09-08T05:42:59;92032.34;;;17.56
71807;BMP280;59655;42.590;23.364;2023-09-08T05:45:24;92032.94;;;17.55
71807;BMP280;59655;42.590;23.364;2023-09-08T05:47:52;92039.13;;;17.57
71807;BMP280;59655;42.590;23.364;2023-09-08T05:50:17;92035.88;;;17.59
71807;BMP280;59655;42.590;23.364;2023-09-08T05:52:43;92039.94;;;17.60
71807;BMP280;59655;42.590;23.364;2023-09-08T05:55:09;92045.63;;;17.64
71807;BMP280;59655;42.590;23.364;2023-09-08T05:57:34;92046.44;;;17.66
71807;BMP280;59655;42.590;23.364;2023-09-08T06:00:00;92051.28;;;17.68
71807;BMP280;59655;42.590;23.364;2023-09-08T06:02:26;92050.72;;;17.69
71807;BMP280;59655;42.590;23.364;2023-09-08T06:04:51;92049.41;;;17.70
71807;BMP280;59655;42.590;23.364;2023-09-08T06:07:17;92042.78;;;17.71
71807;BMP280;59655;42.590;23.364;2023-09-08T06:09:42;92043.63;;;17.74
71807;BMP280;59655;42.590;23.364;2023-09-08T06:12:07;92045.00;;;17.75
71807;BMP280;59655;42.590;23.364;2023-09-08T06:14:33;92051.09;;;17.76
71807;BMP280;59655;42.590;23.364;2023-09-08T06:16:58;92040.34;;;17.76
71807;BMP280;59655;42.590;23.364;2023-09-08T06:19:23;92050.69;;;17.79
71807;BMP280;59655;42.590;23.364;2023-09-08T06:21:49;92046.56;;;17.78
71807;BMP280;59655;42.590;23.364;2023-09-08T06:24:14;92054.06;;;17.80
71807;BMP280;59655;42.590;23.364;2023-09-08T06:26:39;92053.63;;;17.83
71807;BMP280;59655;42.590;23.364;2023-09-08T06:29:05;92051.75;;;17.86
71807;BMP280;59655;42.590;23.364;2023-09-08T06:31:31;92053.03;;;17.85
71807;BMP280;59655;42.590;23.364;2023-09-08T06:33:56;92057.13;;;17.86
71807;BMP280;59655;42.590;23.364;2023-09-08T06:36:21;92059.97;;;17.88
71807;BMP280;59655;42.590;23.364;2023-09-08T06:38:47;92056.44;;;17.85
71807;BMP280;59655;42.590;23.364;2023-09-08T06:41:12;92067.59;;;17.91
71807;BMP280;59655;42.590;23.364;2023-09-08T06:43:38;92063.75;;;17.94
71807;BMP280;59655;42.590;23.364;2023-09-08T06:46:04;92065.41;;;18.00
71807;BMP280;59655;42.590;23.364;2023-09-08T06:48:30;92069.69;;;18.03
71807;BMP280;59655;42.590;23.364;2023-09-08T06:50:55;92076.72;;;18.08
71807;BMP280;59655;42.590;23.364;2023-09-08T06:53:22;92068.78;;;18.10
71807;BMP280;59655;42.590;23.364;2023-09-08T06:55:48;92076.41;;;18.13
71807;BMP280;59655;42.590;23.364;2023-09-08T06:58:13;92075.28;;;18.16
71807;BMP280;59655;42.590;23.364;2023-09-08T07:00:40;92074.81;;;18.20
71807;BMP280;59655;42.590;23.364;2023-09-08T07:03:06;92071.69;;;18.24
71807;BMP280;59655;42.590;23.364;2023-09-08T07:05:33;92078.63;;;18.27
71807;BMP280;59655;42.590;23.364;2023-09-08T07:08:06;92068.72;;;18.29
71807;BMP280;59655;42.590;23.364;2023-09-08T07:10:34;92073.63;;;18.33
71807;BMP280;59655;42.590;23.364;2023-09-08T07:13:00;92074.47;;;18.35
71807;BMP280;59655;42.590;23.364;2023-09-08T07:15:25;92073.19;;;18.36
71807;BMP280;59655;42.590;23.364;2023-09-08T07:17:51;92078.69;;;18.38
71807;BMP280;59655;42.590;23.364;2023-09-08T07:20:16;92077.56;;;18.41
71807;BMP280;59655;42.590;23.364;2023-09-08T07:22:42;92080.38;;;18.44
71807;BMP280;59655;42.590;23.364;2023-09-08T07:25:09;92076.56;;;18.47
71807;BMP280;59655;42.590;23.364;2023-09-08T07:27:34;92078.06;;;18.50
71807;BMP280;59655;42.590;23.364;2023-09-08T07:30:00;92074.13;;;18.51
71807;BMP280;59655;42.590;23.364;2023-09-08T07:32:25;92080.31;;;18.53
71807;BMP280;59655;42.590;23.364;2023-09-08T07:34:51;92073.09;;;18.56
71807;BMP280;59655;42.590;23.364;2023-09-08T07:37:23;92072.50;;;18.57
71807;BMP280;59655;42.590;23.364;2023-09-08T07:39:50;92076.75;;;18.60
71807;BMP280;59655;42.590;23.364;2023-09-08T07:42:16;92074.19;;;18.62
71807;BMP280;59655;42.590;23.364;2023-09-08T07:44:41;92080.53;;;18.67
71807;BMP280;59655;42.590;23.364;2023-09-08T07:47:07;92082.09;;;18.70
71807;BMP280;59655;42.590;23.364;2023-09-08T07:49:36;92070.75;;;18.72
71807;BMP280;59655;42.590;23.364;2023-09-08T07:52:01;92076.81;;;18.72
71807;BMP280;59655;42.590;23.364;2023-09-08T07:54:30;92074.38;;;18.76
71807;BMP280;59655;42.590;23.364;2023-09-08T07:56:56;92076.50;;;18.78
71807;BMP280;59655;42.590;23.364;2023-09-08T07:59:21;92073.94;;;18.80
71807;BMP280;59655;42.590;23.364;2023-09-08T08:01:46;92074.78;;;18.82
71807;BMP280;59655;42.590;23.364;2023-09-08T08:04:12;92068.13;;;18.83
71807;BMP280;59655;42.590;23.364;2023-09-08T08:06:37;92073.75;;;18.87
71807;BMP280;59655;42.590;23.364;2023-09-08T08:09:03;92077.94;;;18.91
71807;BMP280;59655;42.590;23.364;2023-09-08T08:11:28;92074.00;;;18.92
71807;BMP280;59655;42.590;23.364;2023-09-08T08:13:54;92070.84;;;18.95
71807;BMP280;59655;42.590;23.364;2023-09-08T08:16:19;92076.94;;;18.96
71807;BMP280;59655;42.590;23.364;2023-09-08T08:18:47;92077.78;;;18.98
71807;BMP280;59655;42.590;23.364;2023-09-08T08:21:12;92069.13;;;19.00
71807;BMP280;59655;42.590;23.364;2023-09-08T08:23:38;92076.06;;;19.03
71807;BMP280;59655;42.590;23.364;2023-09-08T08:26:04;92075.00;;;19.08
71807;BMP280;59655;42.590;23.364;2023-09-08T08:28:29;92072.59;;;19.12
71807;BMP280;59655;42.590;23.364;2023-09-08T08:30:55;92070.00;;;19.14
71807;BMP280;59655;42.590;23.364;2023-09-08T08:33:21;92069.28;;;19.13
71807;BMP280;59655;42.590;23.364;2023-09-08T08:35:51;92074.94;;;19.18
71807;BMP280;59655;42.590;23.364;2023-09-08T08:38:17;92075.78;;;19.20
71807;BMP280;59655;42.590;23.364;2023-09-08T08:40:42;92077.19;;;19.21
71807;BMP280;59655;42.590;23.364;2023-09-08T08:43:08;92068.50;;;19.23
71807;BMP280;59655;42.590;23.364;2023-09-08T08:45:34;92068.19;;;19.28
71807;BMP280;59655;42.590;23.364;2023-09-08T08:48:01;92067.63;;;19.30
71807;BMP280;59655;42.590;23.364;2023-09-08T08:50:29;92072.41;;;19.31
71807;BMP280;59655;42.590;23.364;2023-09-08T08:52:55;92069.97;;;19.35
71807;BMP280;59655;42.590;23.364;2023-09-08T08:55:22;92056.63;;;19.38
71807;BMP280;59655;42.590;23.364;2023-09-08T08:57:48;92068.81;;;19.39
71807;BMP280;59655;42.590;23.364;2023-09-08T09:00:14;92068.09;;;19.38
71807;BMP280;59655;42.590;23.364;2023-09-08T09:02:42;92060.84;;;19.41
71807;BMP280;59655;42.590;23.364;2023-09-08T09:05:16;92064.25;;;19.41
71807;BMP280;59655;42.590;23.364;2023-09-08T09:07:43;92066.94;;;19.41
71807;BMP280;59655;42.590;23.364;2023-09-08T09:10:09;92069.06;;;19.43
71807;BMP280;59655;42.590;23.364;2023-09-08T09:12:37;92069.78;;;19.43
71807;BMP280;59655;42.590;23.364;2023-09-08T09:15:03;92063.19;;;19.46
71807;BMP280;59655;42.590;23.364;2023-09-08T09:17:34;92064.72;;;19.49
71807;BMP280;59655;42.590;23.364;2023-09-08T09:20:15;92063.59;;;19.52
71807;BMP280;59655;42.590;23.364;2023-09-08T09:22:43;92069.91;;;19.57
71807;BMP280;59655;42.590;23.364;2023-09-08T09:25:09;92048.47;;;19.59
71807;BMP280;59655;42.590;23.364;2023-09-08T09:27:35;92053.44;;;19.63
71807;BMP280;59655;42.590;23.364;2023-09-08T09:30:03;92049.69;;;19.68
71807;BMP280;59655;42.590;23.364;2023-09-08T09:32:29;92047.13;;;19.70
71807;BMP280;59655;42.590;23.364;2023-09-08T09:34:57;92053.53;;;19.76
71807;BMP280;59655;42.590;23.364;2023-09-08T09:37:23;92053.34;;;19.84
71807;BMP280;59655;42.590;23.364;2023-09-08T09:39:53;92049.00;;;19.91
71807;BMP280;59655;42.590;23.364;2023-09-08T09:42:20;92044.69;;;19.97
71807;BMP280;59655;42.590;23.364;2023-09-08T09:44:49;92045.47;;;20.00
71807;BMP280;59655;42.590;23.364;2023-09-08T09:47:16;92037.75;;;20.06
71807;BMP280;59655;42.590;23.364;2023-09-08T09:49:43;92031.75;;;20.07
71807;BMP280;59655;42.590;23.364;2023-09-08T09:52:11;92037.63;;;20.16
71807;BMP280;59655;42.590;23.364;2023-09-08T09:54:42;92030.69;;;20.24
71807;BMP280;59655;42.590;23.364;2023-09-08T09:57:10;92037.88;;;20.32
71807;BMP280;59655;42.590;23.364;2023-09-08T09:59:36;92031.50;;;20.39
71807;BMP280;59655;42.590;23.364;2023-09-08T10:02:02;92030.00;;;20.36
71807;BMP280;59655;42.590;23.364;2023-09-08T10:04:28;92032.69;;;20.36
71807;BMP280;59655;42.590;23.364;2023-09-08T10:06:55;92023.66;;;20.43
71807;BMP280;59655;42.590;23.364;2023-09-08T10:09:23;92021.66;;;20.43
71807;BMP280;59655;42.590;23.364;2023-09-08T10:11:49;92017.06;;;20.46
71807;BMP280;59655;42.590;23.364;2023-09-08T10:14:16;92021.31;;;20.49
71807;BMP280;59655;42.590;23.364;2023-09-08T10:16:45;92014.22;;;20.55
71807;BMP280;59655;42.590;23.364;2023-09-08T10:19:16;92015.97;;;20.63
71807;BMP280;59655;42.590;23.364;2023-09-08T10:21:48;92015.97;;;20.63
71807;BMP280;59655;42.590;23.364;2023-09-08T10:24:24;92020.31;;;20.68
71807;BMP280;59655;42.590;23.364;2023-09-08T10:27:10;92016.66;;;20.75
71807;BMP280;59655;42.590;23.364;2023-09-08T10:29:36;92012.44;;;20.72
71807;BMP280;59655;42.590;23.364;2023-09-08T10:32:02;92006.88;;;20.82
71807;BMP280;59655;42.590;23.364;2023-09-08T10:34:29;92004.63;;;20.90
71807;BMP280;59655;42.590;23.364;2023-09-08T10:36:55;92012.84;;;20.92
71807;BMP280;59655;42.590;23.364;2023-09-08T10:39:34;92005.53;;;20.94
71807;BMP280;59655;42.590;23.364;2023-09-08T10:47:13;92003.88;;;21.01
71807;BMP280;59655;42.590;23.364;2023-09-08T10:49:40;92009.47;;;21.05
71807;BMP280;59655;42.590;23.364;2023-09-08T10:52:09;92006.19;;;21.07
71807;BMP280;59655;42.590;23.364;2023-09-08T10:57:13;92007.59;;;21.08
71807;BMP280;59655;42.590;23.364;2023-09-08T10:59:38;92002.19;;;21.08
71807;BMP280;59655;42.590;23.364;2023-09-08T11:02:04;92000.63;;;21.16
71807;BMP280;59655;42.590;23.364;2023-09-08T11:04:29;92004.34;;;21.23
71807;BMP280;59655;42.590;23.364;2023-09-08T11:06:58;91995.75;;;21.26
71807;BMP280;59655;42.590;23.364;2023-09-08T11:09:23;92002.94;;;21.22
71807;BMP280;59655;42.590;23.364;2023-09-08T11:11:50;91999.06;;;21.25
71807;BMP280;59655;42.590;23.364;2023-09-08T11:14:15;92002.06;;;21.31
71807;BMP280;59655;42.590;23.364;2023-09-08T11:16:41;91998.97;;;21.37
71807;BMP280;59655;42.590;23.364;2023-09-08T11:19:07;91996.00;;;21.44
71807;BMP280;59655;42.590;23.364;2023-09-08T11:21:34;91993.09;;;21.40
71807;BMP280;59655;42.590;23.364;2023-09-08T11:24:04;91992.28;;;21.38
71807;BMP280;59655;42.590;23.364;2023-09-08T11:26:32;91986.56;;;21.32
71807;BMP280;59655;42.590;23.364;2023-09-08T11:28:58;91986.47;;;21.30
71807;BMP280;59655;42.590;23.364;2023-09-08T11:31:23;91990.25;;;21.24
71807;BMP280;59655;42.590;23.364;2023-09-08T11:33:49;91988.84;;;21.23
71807;BMP280;59655;42.590;23.364;2023-09-08T11:36:14;91994.97;;;21.24
71807;BMP280;59655;42.590;23.364;2023-09-08T11:38:42;91984.16;;;21.24
71807;BMP280;59655;42.590;23.364;2023-09-08T11:41:08;91981.34;;;21.22
71807;BMP280;59655;42.590;23.364;2023-09-08T11:43:33;91986.53;;;21.18
71807;BMP280;59655;42.590;23.364;2023-09-08T11:45:59;91983.22;;;21.19
71807;BMP280;59655;42.590;23.364;2023-09-08T11:48:27;91980.75;;;21.23
71807;BMP280;59655;42.590;23.364;2023-09-08T11:50:55;91977.81;;;21.19
71807;BMP280;59655;42.590;23.364;2023-09-08T11:53:21;91981.03;;;21.16
71807;BMP280;59655;42.590;23.364;2023-09-08T11:55:47;91985.81;;;21.17
71807;BMP280;59655;42.590;23.364;2023-09-08T11:58:13;91974.53;;;21.21
71807;BMP280;59655;42.590;23.364;2023-09-08T12:00:39;91976.34;;;21.30
71807;BMP280;59655;42.590;23.364;2023-09-08T12:03:10;91977.50;;;21.39
71807;BMP280;59655;42.590;23.364;2023-09-08T12:05:36;91968.28;;;21.44
71807;BMP280;59655;42.590;23.364;2023-09-08T12:08:04;91979.09;;;21.44
71807;BMP280;59655;42.590;23.364;2023-09-08T12:10:40;91976.28;;;21.42
71807;BMP280;59655;42.590;23.364;2023-09-08T12:13:07;91965.97;;;21.38
71807;BMP280;59655;42.590;23.364;2023-09-08T12:15:39;91953.91;;;21.53
71807;BMP280;59655;42.590;23.364;2023-09-08T12:18:09;91958.00;;;21.68
71807;BMP280;59655;42.590;23.364;2023-09-08T12:20:37;91962.63;;;21.79
71807;BMP280;59655;42.590;23.364;2023-09-08T12:23:15;91950.19;;;22.02
71807;BMP280;59655;42.590;23.364;2023-09-08T12:25:48;91949.56;;;22.03
71807;BMP280;59655;42.590;23.364;2023-09-08T12:28:13;91958.50;;;21.92
71807;BMP280;59655;42.590;23.364;2023-09-08T12:30:39;91942.38;;;21.80
71807;BMP280;59655;42.590;23.364;2023-09-08T12:33:04;91941.81;;;21.82
71807;BMP280;59655;42.590;23.364;2023-09-08T12:35:30;91950.00;;;21.97
71807;BMP280;59655;42.590;23.364;2023-09-08T12:38:02;91952.09;;;21.99
71807;BMP280;59655;42.590;23.364;2023-09-08T12:40:33;91950.59;;;23.62
71807;BMP280;59655;42.590;23.364;2023-09-08T12:42:59;91942.13;;;24.92
71807;BMP280;59655;42.590;23.364;2023-09-08T12:45:26;91936.34;;;25.02
71807;BMP280;59655;42.590;23.364;2023-09-08T12:47:52;91942.69;;;25.29
71807;BMP280;59655;42.590;23.364;2023-09-08T12:50:18;91943.75;;;24.82
71807;BMP280;59655;42.590;23.364;2023-09-08T12:52:44;91934.13;;;24.97
71807;BMP280;59655;42.590;23.364;2023-09-08T12:55:10;91934.41;;;24.31
71807;BMP280;59655;42.590;23.364;2023-09-08T12:57:36;91941.59;;;25.16
71807;BMP280;59655;42.590;23.364;2023-09-08T13:00:03;91939.38;;;26.82
71807;BMP280;59655;42.590;23.364;2023-09-08T13:02:29;91939.50;;;25.54
71807;BMP280;59655;42.590;23.364;2023-09-08T13:04:54;91943.00;;;24.79
71807;BMP280;59655;42.590;23.364;2023-09-08T13:07:20;91934.25;;;24.27
71807;BMP280;59655;42.590;23.364;2023-09-08T13:09:45;91935.47;;;24.06
71807;BMP280;59655;42.590;23.364;2023-09-08T13:12:11;91931.84;;;25.49
71807;BMP280;59655;42.590;23.364;2023-09-08T13:14:38;91937.47;;;24.77
71807;BMP280;59655;42.590;23.364;2023-09-08T13:17:04;91941.09;;;26.69
71807;BMP280;59655;42.590;23.364;2023-09-08T13:19:31;91935.78;;;25.85
71807;BMP280;59655;42.590;23.364;2023-09-08T13:21:57;91937.06;;;26.72
71807;BMP280;59655;42.590;23.364;2023-09-08T13:24:22;91942.47;;;28.30
71807;BMP280;59655;42.590;23.364;2023-09-08T13:26:47;91927.78;;;26.81
71807;BMP280;59655;42.590;23.364;2023-09-08T13:29:13;91944.41;;;27.41
71807;BMP280;59655;42.590;23.364;2023-09-08T13:31:38;91931.47;;;26.44
71807;BMP280;59655;42.590;23.364;2023-09-08T13:34:04;91933.84;;;25.68
71807;BMP280;59655;42.590;23.364;2023-09-08T13:36:30;91935.16;;;25.07
71807;BMP280;59655;42.590;23.364;2023-09-08T13:38:55;91935.31;;;24.74
71807;BMP280;59655;42.590;23.364;2023-09-08T13:41:21;91939.97;;;24.53
71807;BMP280;59655;42.590;23.364;2023-09-08T13:43:46;91937.72;;;24.30
71807;BMP280;59655;42.590;23.364;2023-09-08T13:46:11;91931.59;;;24.11
71807;BMP280;59655;42.590;23.364;2023-09-08T13:48:37;91936.59;;;24.01
71807;BMP280;59655;42.590;23.364;2023-09-08T13:51:03;91939.97;;;23.84
71807;BMP280;59655;42.590;23.364;2023-09-08T13:53:29;91943.34;;;23.66
71807;BMP280;59655;42.590;23.364;2023-09-08T13:55:58;91934.53;;;23.50
71807;BMP280;59655;42.590;23.364;2023-09-08T13:58:24;91935.34;;;23.37
71807;BMP280;59655;42.590;23.364;2023-09-08T14:00:50;91936.38;;;23.30
71807;BMP280;59655;42.590;23.364;2023-09-08T14:03:19;91935.94;;;23.19
71807;BMP280;59655;42.590;23.364;2023-09-08T14:05:44;91938.13;;;23.07